createdAt,value
2023-02-02T00:02:00.769Z,10.65
2023-02-02T00:04:27.550Z,11.00
2023-02-02T00:06:54.420Z,10.99
2023-02-02T00:09:21.310Z,10.95
2023-02-02T00:11:48.638Z,10.74
2023-02-02T00:14:15.563Z,10.82
2023-02-02T00:16:44.296Z,10.88
2023-02-02T00:19:16.637Z,10.88
2023-02-02T00:21:43.686Z,10.86
2023-02-02T00:24:11.746Z,10.82
2023-02-02T00:26:39.955Z,10.83
2023-02-02T00:29:07.674Z,10.65
2023-02-02T00:31:34.854Z,10.78
2023-02-02T00:34:01.794Z,10.75
2023-02-02T00:36:28.771Z,10.73
2023-02-02T00:38:55.687Z,10.72
2023-02-02T00:41:23.386Z,10.68
2023-02-02T00:44:10.268Z,10.63
2023-02-02T00:46:39.777Z,10.56
2023-02-02T00:49:07.233Z,10.42
2023-02-02T00:51:34.483Z,10.64
2023-02-02T00:54:01.378Z,10.62
2023-02-02T00:56:28.253Z,10.61
2023-02-02T00:58:55.097Z,10.53
2023-02-02T01:01:22.286Z,10.52
2023-02-02T01:03:50.118Z,10.38
2023-02-02T01:06:17.690Z,10.33
2023-02-02T01:08:44.592Z,10.48
2023-02-02T01:11:11.444Z,10.46
2023-02-02T01:13:38.352Z,10.45
2023-02-02T01:16:05.751Z,10.44
2023-02-02T01:18:32.660Z,10.42
2023-02-02T01:21:07.624Z,10.39
2023-02-02T01:23:36.406Z,10.38
2023-02-02T01:26:04.495Z,10.37
2023-02-02T01:28:32.316Z,10.34
2023-02-02T01:30:59.333Z,10.30
2023-02-02T01:33:26.203Z,10.30
2023-02-02T01:35:54.912Z,10.29
2023-02-02T01:38:23.817Z,10.27
2023-02-02T01:40:54.169Z,10.25
2023-02-02T01:43:28.886Z,10.11
2023-02-02T01:45:57.193Z,10.21
2023-02-02T01:48:31.948Z,10.21
2023-02-02T01:51:03.152Z,10.19
2023-02-02T01:53:30.011Z,10.17
2023-02-02T01:55:58.093Z,10.15
2023-02-02T01:58:33.896Z,9.76
2023-02-02T02:01:00.747Z,10.14
2023-02-02T02:03:28.776Z,10.12
2023-02-02T02:06:16.049Z,9.90
2023-02-02T02:09:06.195Z,10.19
2023-02-02T02:11:34.250Z,10.45
2023-02-02T02:14:29.530Z,10.31
2023-02-02T02:17:22.434Z,10.45
2023-02-02T02:20:29.867Z,10.41
2023-02-02T02:23:40.608Z,10.38
2023-02-02T02:26:33.808Z,10.36
2023-02-02T02:29:27.183Z,10.38
2023-02-02T02:32:18.984Z,10.34
2023-02-02T02:35:04.455Z,10.35
2023-02-02T02:37:44.017Z,10.33
2023-02-02T02:40:22.092Z,10.34
2023-02-02T02:43:11.005Z,10.34
2023-02-02T02:45:37.949Z,10.29
2023-02-02T02:48:05.096Z,10.32
2023-02-02T02:50:32.187Z,10.34
2023-02-02T02:53:04.239Z,10.33
2023-02-02T02:55:46.395Z,10.30
2023-02-02T02:58:37.386Z,10.14
2023-02-02T03:01:30.366Z,10.05
2023-02-02T03:04:18.767Z,10.23
2023-02-02T03:06:53.153Z,10.11
2023-02-02T03:09:22.415Z,10.47
2023-02-02T03:11:49.249Z,10.56
2023-02-02T03:14:16.078Z,11.06
2023-02-02T03:16:43.010Z,11.34
2023-02-02T03:19:09.876Z,11.65
2023-02-02T03:21:36.774Z,11.96
2023-02-02T03:24:04.054Z,12.24
2023-02-02T03:26:31.031Z,12.52
2023-02-02T03:28:57.871Z,12.80
2023-02-02T03:31:27.155Z,12.94
2023-02-02T03:33:54.918Z,13.41
2023-02-02T03:36:21.952Z,13.70
2023-02-02T03:38:48.882Z,13.99
2023-02-02T03:41:15.734Z,14.19
2023-02-02T03:43:42.598Z,14.53
2023-02-02T03:46:09.523Z,14.79
2023-02-02T03:48:37.729Z,15.08
2023-02-02T03:51:14.553Z,15.37
2023-02-02T03:53:44.397Z,15.61
2023-02-02T03:56:11.318Z,15.85
2023-02-02T03:58:38.191Z,16.07
2023-02-02T04:01:05.960Z,16.19
2023-02-02T04:03:33.204Z,16.58
2023-02-02T04:06:00.569Z,16.66
2023-02-02T04:08:28.459Z,17.06
2023-02-02T04:10:55.360Z,17.31
2023-02-02T04:13:22.244Z,17.56
2023-02-02T04:15:56.007Z,17.76
2023-02-02T04:18:22.911Z,17.92
2023-02-02T04:20:49.755Z,18.10
2023-02-02T04:23:16.643Z,18.29
2023-02-02T04:25:50.418Z,18.53
2023-02-02T04:28:17.254Z,18.74
2023-02-02T04:30:44.231Z,18.92
2023-02-02T04:33:11.166Z,19.09
2023-02-02T04:35:38.017Z,19.28
2023-02-02T04:38:05.188Z,19.45
2023-02-02T04:40:32.144Z,19.60
2023-02-02T04:42:58.992Z,19.83
2023-02-02T04:45:26.228Z,19.96
2023-02-02T04:47:53.438Z,20.15
2023-02-02T04:50:20.360Z,20.27
2023-02-02T04:52:47.308Z,20.33
2023-02-02T04:55:14.444Z,20.40
2023-02-02T04:57:41.481Z,20.51
2023-02-02T05:00:11.550Z,20.54
2023-02-02T05:02:39.216Z,20.79
2023-02-02T05:05:08.206Z,21.06
2023-02-02T05:07:35.529Z,21.15
2023-02-02T05:10:03.582Z,21.22
2023-02-02T05:12:30.718Z,21.17
2023-02-02T05:14:57.765Z,21.43
2023-02-02T05:17:24.775Z,21.53
2023-02-02T05:19:51.764Z,21.58
2023-02-02T05:22:18.807Z,21.61
2023-02-02T05:24:46.747Z,21.69
2023-02-02T05:27:13.716Z,21.79
2023-02-02T05:29:40.725Z,21.92
2023-02-02T05:32:07.975Z,21.99
2023-02-02T05:34:35.133Z,22.04
2023-02-02T05:37:02.247Z,22.13
2023-02-02T05:39:29.287Z,22.26
2023-02-02T05:41:56.268Z,22.43
2023-02-02T05:44:23.295Z,22.53
2023-02-02T05:46:50.441Z,22.58
2023-02-02T05:49:17.339Z,22.64
2023-02-02T05:51:46.711Z,22.78
2023-02-02T05:54:17.514Z,22.87
2023-02-02T05:56:44.456Z,22.89
2023-02-02T05:59:11.324Z,22.99
2023-02-02T06:01:38.372Z,23.13
2023-02-02T06:04:05.446Z,23.30
2023-02-02T06:06:32.443Z,23.43
2023-02-02T06:08:59.753Z,23.50
2023-02-02T06:11:26.991Z,23.55
2023-02-02T06:13:53.992Z,23.67
2023-02-02T06:16:21.161Z,23.82
2023-02-02T06:18:48.703Z,23.90
2023-02-02T06:21:15.699Z,23.91
2023-02-02T06:23:46.139Z,23.94
2023-02-02T06:26:13.642Z,23.99
2023-02-02T06:28:41.170Z,24.10
2023-02-02T06:31:09.402Z,24.12
2023-02-02T06:33:36.500Z,24.12
2023-02-02T06:36:04.979Z,24.18
2023-02-02T06:38:32.009Z,24.26
2023-02-02T06:41:02.478Z,24.35
2023-02-02T06:43:30.113Z,24.05
2023-02-02T06:45:57.700Z,24.29
2023-02-02T06:48:25.410Z,24.30
2023-02-02T06:50:53.226Z,24.40
2023-02-02T06:53:23.437Z,24.45
2023-02-02T06:55:57.598Z,24.43
2023-02-02T06:58:24.799Z,24.40
2023-02-02T07:00:51.862Z,24.44
2023-02-02T07:03:21.482Z,24.46
2023-02-02T07:05:49.300Z,24.37
2023-02-02T07:08:16.366Z,24.39
2023-02-02T07:11:13.423Z,24.18
2023-02-02T07:13:31.696Z,23.99
2023-02-02T07:15:58.652Z,24.39
2023-02-02T07:18:25.589Z,24.45
2023-02-02T07:20:52.553Z,24.34
2023-02-02T07:23:19.435Z,24.54
2023-02-02T07:25:46.349Z,24.44
2023-02-02T07:28:13.280Z,24.41
2023-02-02T07:30:40.234Z,24.37
2023-02-02T07:33:07.228Z,24.19
2023-02-02T07:35:34.216Z,24.07
2023-02-02T07:38:01.164Z,23.90
2023-02-02T07:40:28.137Z,23.82
2023-02-02T07:42:55.302Z,23.65
2023-02-02T07:45:36.345Z,23.76
2023-02-02T07:48:03.618Z,23.61
2023-02-02T07:50:30.727Z,23.52
2023-02-02T07:52:59.735Z,23.31
2023-02-02T07:55:26.861Z,23.42
2023-02-02T07:57:55.518Z,23.36
2023-02-02T08:00:23.250Z,23.28
2023-02-02T08:02:50.352Z,23.29
2023-02-02T08:05:17.434Z,23.32
2023-02-02T08:07:44.881Z,23.35
2023-02-02T08:10:12.036Z,23.32
2023-02-02T08:12:39.077Z,23.32
2023-02-02T08:15:06.393Z,23.37
2023-02-02T08:17:33.379Z,23.32
2023-02-02T08:20:00.250Z,23.35
2023-02-02T08:22:27.226Z,23.36
2023-02-02T08:24:54.223Z,23.36
2023-02-02T08:27:21.139Z,23.35
2023-02-02T08:29:48.083Z,23.35
2023-02-02T08:32:15.140Z,23.36
2023-02-02T08:34:42.077Z,23.36
2023-02-02T08:37:09.102Z,23.38
2023-02-02T08:39:36.208Z,23.34
2023-02-02T08:42:03.135Z,23.34
2023-02-02T08:44:45.841Z,23.32
2023-02-02T08:47:17.062Z,23.13
2023-02-02T08:49:45.100Z,23.02
2023-02-02T08:52:11.983Z,22.84
2023-02-02T08:54:38.957Z,23.03
2023-02-02T08:57:05.863Z,23.12
2023-02-02T08:59:32.782Z,23.05
2023-02-02T09:01:59.736Z,22.68
2023-02-02T09:04:26.726Z,23.12
2023-02-02T09:06:53.699Z,23.20
2023-02-02T09:09:20.771Z,23.03
2023-02-02T09:11:47.687Z,23.12
2023-02-02T09:14:14.954Z,23.08
2023-02-02T09:16:42.088Z,23.01
2023-02-02T09:19:10.766Z,22.64
2023-02-02T09:21:37.739Z,22.48
2023-02-02T09:24:12.132Z,22.30
2023-02-02T09:26:40.431Z,22.34
2023-02-02T09:29:08.526Z,22.48
2023-02-02T09:31:36.973Z,22.58
2023-02-02T09:34:05.153Z,22.69
2023-02-02T09:36:32.204Z,22.86
2023-02-02T09:38:59.364Z,22.96
2023-02-02T09:41:38.189Z,22.97
2023-02-02T09:44:17.227Z,23.15
2023-02-02T09:47:02.877Z,23.26
2023-02-02T09:49:40.928Z,23.17
2023-02-02T09:52:12.274Z,23.24
2023-02-02T09:54:44.069Z,23.22
2023-02-02T09:57:23.498Z,23.27
2023-02-02T09:59:51.201Z,23.25
2023-02-02T10:02:21.729Z,23.38
2023-02-02T10:04:51.633Z,23.41
2023-02-02T10:07:32.594Z,23.48
2023-02-02T10:10:03.839Z,23.49
2023-02-02T10:12:33.709Z,23.49
2023-02-02T10:15:18.719Z,23.54
2023-02-02T10:18:06.739Z,23.41
2023-02-02T10:21:04.077Z,23.61
2023-02-02T10:23:35.755Z,23.58
2023-02-02T10:26:16.500Z,23.69
2023-02-02T10:29:00.127Z,23.51
2023-02-02T10:31:33.360Z,23.52
2023-02-02T10:34:17.624Z,23.52
2023-02-02T10:36:50.733Z,24.21
2023-02-02T10:39:24.734Z,24.41
2023-02-02T10:42:44.576Z,24.47
2023-02-02T10:45:20.500Z,24.49
2023-02-02T10:47:47.489Z,24.36
2023-02-02T10:50:14.329Z,24.57
2023-02-02T10:52:47.801Z,24.63
2023-02-02T10:55:14.670Z,24.71
2023-02-02T10:58:14.036Z,24.82
2023-02-02T11:00:58.237Z,24.97
2023-02-02T11:03:30.169Z,24.88
2023-02-02T11:06:16.955Z,24.89
2023-02-02T11:08:45.147Z,24.79
2023-02-02T11:11:33.075Z,24.71
2023-02-02T11:14:09.357Z,24.65
2023-02-02T11:16:43.604Z,24.71
2023-02-02T11:19:17.120Z,24.79
2023-02-02T11:21:48.706Z,24.78
2023-02-02T11:24:28.724Z,24.75
2023-02-02T11:26:56.899Z,24.77
2023-02-02T11:29:31.614Z,24.25
2023-02-02T11:31:58.759Z,23.38
2023-02-02T11:34:26.956Z,22.84
2023-02-02T11:37:00.197Z,22.21
2023-02-02T11:39:27.369Z,21.99
2023-02-02T11:42:05.321Z,21.93
2023-02-02T11:44:32.684Z,21.62
2023-02-02T11:47:00.133Z,21.20
2023-02-02T11:49:27.178Z,20.93
2023-02-02T11:51:59.040Z,20.79
2023-02-02T11:54:33.771Z,20.72
2023-02-02T11:57:05.380Z,20.59
2023-02-02T11:59:39.849Z,20.52
2023-02-02T12:02:26.711Z,20.48
2023-02-02T12:04:55.983Z,20.49
2023-02-02T12:07:29.505Z,20.50
2023-02-02T12:09:59.544Z,20.73
2023-02-02T12:12:29.001Z,20.85
2023-02-02T12:15:07.778Z,20.93
2023-02-02T12:17:46.961Z,20.80
2023-02-02T12:20:26.286Z,20.67
2023-02-02T12:23:20.238Z,20.64
2023-02-02T12:25:56.781Z,20.40
2023-02-02T12:28:30.981Z,20.55
2023-02-02T12:30:57.934Z,20.78
2023-02-02T12:33:37.136Z,20.88
2023-02-02T12:36:19.126Z,20.88
2023-02-02T12:39:03.585Z,21.07
2023-02-02T12:41:41.006Z,21.11
2023-02-02T12:44:19.840Z,20.90
2023-02-02T12:47:15.878Z,20.70
2023-02-02T12:50:14.177Z,20.66
2023-02-02T12:52:48.061Z,20.64
2023-02-02T12:55:22.044Z,20.63
2023-02-02T12:57:51.954Z,20.55
2023-02-02T13:00:44.197Z,20.62
2023-02-02T13:03:13.971Z,20.45
2023-02-02T13:08:48.387Z,19.85
2023-02-02T13:11:30.899Z,19.92
2023-02-02T13:14:08.410Z,19.91
2023-02-02T13:16:36.443Z,19.93
2023-02-02T13:19:21.178Z,20.10
2023-02-02T13:21:48.280Z,20.19
2023-02-02T13:24:26.678Z,20.99
2023-02-02T13:26:53.939Z,21.52
2023-02-02T13:29:47.218Z,21.88
2023-02-02T13:32:30.845Z,22.14
2023-02-02T13:35:05.292Z,22.12
2023-02-02T13:37:41.223Z,22.33
2023-02-02T13:40:20.021Z,22.41
2023-02-02T13:42:55.794Z,22.51
2023-02-02T13:46:00.312Z,22.55
2023-02-02T13:48:38.955Z,22.54
2023-02-02T13:51:43.580Z,22.57
2023-02-02T13:54:31.683Z,22.54
2023-02-02T13:57:01.426Z,22.55
2023-02-02T14:00:03.957Z,22.54
2023-02-02T14:02:40.380Z,22.53
2023-02-02T14:05:07.717Z,22.49
2023-02-02T14:07:42.092Z,22.38
2023-02-02T14:10:20.842Z,22.41
2023-02-02T14:12:47.771Z,22.18
2023-02-02T14:15:17.053Z,22.11
2023-02-02T14:17:43.985Z,22.20
2023-02-02T14:20:40.252Z,22.12
2023-02-02T14:23:44.340Z,22.03
2023-02-02T14:26:11.543Z,21.94
2023-02-02T14:28:43.943Z,21.91
2023-02-02T14:31:51.299Z,21.90
2023-02-02T14:34:42.985Z,21.76
2023-02-02T14:37:25.365Z,21.71
2023-02-02T14:40:07.387Z,21.62
2023-02-02T14:43:10.626Z,21.50
2023-02-02T14:45:41.079Z,21.31
2023-02-02T14:48:18.133Z,21.26
2023-02-02T14:50:57.902Z,21.21
2023-02-02T14:53:33.728Z,20.93
2023-02-02T14:56:01.928Z,21.02
2023-02-02T14:58:51.866Z,20.68
2023-02-02T15:01:23.103Z,20.92
2023-02-02T15:04:08.875Z,20.89
2023-02-02T15:06:36.956Z,20.81
2023-02-02T15:09:29.298Z,20.75
2023-02-02T15:12:01.132Z,20.67
2023-02-02T15:14:47.368Z,20.61
2023-02-02T15:17:25.396Z,20.56
2023-02-02T15:20:02.035Z,20.31
2023-02-02T15:22:38.959Z,20.32
2023-02-02T15:25:23.528Z,20.41
2023-02-02T15:27:58.372Z,20.34
2023-02-02T15:30:27.330Z,20.13
2023-02-02T15:32:54.240Z,20.07
2023-02-02T15:35:23.641Z,20.15
2023-02-02T15:37:57.593Z,20.07
2023-02-02T15:40:25.349Z,20.03
2023-02-02T15:43:10.659Z,19.97
2023-02-02T15:45:48.963Z,19.96
2023-02-02T15:48:18.863Z,19.90
2023-02-02T15:50:51.068Z,19.84
2023-02-02T15:53:19.687Z,19.76
2023-02-02T15:55:46.553Z,19.70
2023-02-02T15:58:33.499Z,19.66
2023-02-02T16:01:05.397Z,19.60
2023-02-02T16:03:38.713Z,19.53
2023-02-02T16:06:06.461Z,19.44
2023-02-02T16:08:36.268Z,19.41
2023-02-02T16:11:10.938Z,19.37
2023-02-02T16:13:37.646Z,19.29
2023-02-02T16:16:07.067Z,19.19
2023-02-02T16:18:35.329Z,19.14
2023-02-02T16:21:17.998Z,19.06
2023-02-02T16:23:44.930Z,19.00
2023-02-02T16:26:12.034Z,18.89
2023-02-02T16:28:38.907Z,18.80
2023-02-02T16:31:07.368Z,18.74
2023-02-02T16:33:39.210Z,18.70
2023-02-02T16:36:28.427Z,18.63
2023-02-02T16:38:57.643Z,18.52
2023-02-02T16:41:47.469Z,18.44
2023-02-02T16:44:44.899Z,18.29
2023-02-02T16:47:26.875Z,18.21
2023-02-02T16:50:08.689Z,18.11
2023-02-02T16:52:52.552Z,18.04
2023-02-02T16:55:19.963Z,17.94
2023-02-02T16:57:47.435Z,17.90
2023-02-02T17:00:24.177Z,17.87
2023-02-02T17:02:53.331Z,17.64
2023-02-02T17:05:26.199Z,17.76
2023-02-02T17:08:01.063Z,17.68
2023-02-02T17:10:31.082Z,17.62
2023-02-02T17:12:59.062Z,17.56
2023-02-02T17:15:35.058Z,17.52
2023-02-02T17:18:03.661Z,17.47
2023-02-02T17:20:30.519Z,17.42
2023-02-02T17:23:00.088Z,17.38
2023-02-02T17:25:33.311Z,17.38
2023-02-02T17:28:00.436Z,17.33
2023-02-02T17:30:27.406Z,17.26
2023-02-02T17:32:54.288Z,17.22
2023-02-02T17:35:23.561Z,17.18
2023-02-02T17:37:52.740Z,16.90
2023-02-02T17:40:21.197Z,16.91
2023-02-02T17:42:52.156Z,17.01
2023-02-02T17:45:24.673Z,16.96
2023-02-02T17:47:51.736Z,16.91
2023-02-02T17:50:18.840Z,16.85
2023-02-02T17:52:46.200Z,16.61
2023-02-02T17:55:24.331Z,16.78
2023-02-02T17:57:52.207Z,16.75
2023-02-02T18:00:20.872Z,16.67
2023-02-02T18:02:48.064Z,16.30
2023-02-02T18:05:16.421Z,16.53
2023-02-02T18:07:43.682Z,16.54
2023-02-02T18:10:12.093Z,16.51
2023-02-02T18:12:39.391Z,16.48
2023-02-02T18:15:08.361Z,16.47
2023-02-02T18:17:35.384Z,16.43
2023-02-02T18:20:02.218Z,16.37
2023-02-02T18:22:29.706Z,16.37
2023-02-02T18:24:58.820Z,16.31
2023-02-02T18:27:25.942Z,16.28
2023-02-02T18:29:52.884Z,16.24
2023-02-02T18:32:19.751Z,16.22
2023-02-02T18:34:51.200Z,16.14
2023-02-02T18:37:18.249Z,16.09
2023-02-02T18:39:45.427Z,16.07
2023-02-02T18:42:12.297Z,16.03
2023-02-02T18:44:39.123Z,15.97
2023-02-02T18:47:06.100Z,15.97
2023-02-02T18:49:32.932Z,15.89
2023-02-02T18:51:59.839Z,15.88
2023-02-02T18:54:26.866Z,15.81
2023-02-02T18:56:53.746Z,15.77
2023-02-02T18:59:20.718Z,15.58
2023-02-02T19:01:47.736Z,15.64
2023-02-02T19:04:14.637Z,15.59
2023-02-02T19:06:59.997Z,15.58
2023-02-02T19:09:26.886Z,15.54
2023-02-02T19:11:54.976Z,15.52
2023-02-02T19:14:26.761Z,15.46
2023-02-02T19:16:55.840Z,15.45
2023-02-02T19:19:27.603Z,15.40
2023-02-02T19:21:58.281Z,15.24
2023-02-02T19:24:26.763Z,15.37
2023-02-02T19:26:53.996Z,15.35
2023-02-02T19:29:24.978Z,15.29
2023-02-02T19:32:00.702Z,15.26
2023-02-02T19:34:27.654Z,15.21
2023-02-02T19:36:54.524Z,15.15
2023-02-02T19:39:24.973Z,15.12
2023-02-02T19:41:51.889Z,15.09
2023-02-02T19:44:20.199Z,15.05
2023-02-02T19:46:49.558Z,15.01
2023-02-02T19:49:29.939Z,14.96
2023-02-02T19:51:56.913Z,14.90
2023-02-02T19:54:32.938Z,14.87
2023-02-02T19:57:01.874Z,14.57
2023-02-02T19:59:32.348Z,14.73
2023-02-02T20:02:00.568Z,14.66
2023-02-02T20:04:27.475Z,14.45
2023-02-02T20:06:59.502Z,14.51
2023-02-02T20:09:28.696Z,14.36
2023-02-02T20:11:56.702Z,14.37
2023-02-02T20:14:30.200Z,14.32
2023-02-02T20:17:01.005Z,14.24
2023-02-02T20:19:31.641Z,14.25
2023-02-02T20:21:58.471Z,14.20
2023-02-02T20:24:31.119Z,14.11
2023-02-02T20:26:59.037Z,14.07
2023-02-02T20:29:28.270Z,14.01
2023-02-02T20:31:56.276Z,13.97
2023-02-02T20:34:30.667Z,13.93
2023-02-02T20:37:12.768Z,13.87
2023-02-02T20:39:47.776Z,13.79
2023-02-02T20:42:15.025Z,13.77
2023-02-02T20:44:41.938Z,13.74
2023-02-02T20:47:08.879Z,13.71
2023-02-02T20:49:36.285Z,13.71
2023-02-02T20:52:04.581Z,13.55
2023-02-02T20:54:32.262Z,13.67
2023-02-02T20:56:59.205Z,13.64
2023-02-02T20:59:26.109Z,13.63
2023-02-02T21:01:53.066Z,13.57
2023-02-02T21:04:20.218Z,13.60
2023-02-02T21:06:48.501Z,13.58
2023-02-02T21:09:15.448Z,13.58
2023-02-02T21:11:42.432Z,13.52
2023-02-02T21:14:09.376Z,13.56
2023-02-02T21:16:36.345Z,13.55
2023-02-02T21:19:03.303Z,13.53
2023-02-02T21:21:30.291Z,13.48
2023-02-02T21:23:57.291Z,13.46
2023-02-02T21:26:27.290Z,13.39
2023-02-02T21:28:54.265Z,13.39
2023-02-02T21:31:21.494Z,13.38
2023-02-02T21:33:50.615Z,13.34
2023-02-02T21:36:35.973Z,13.32
2023-02-02T21:39:17.686Z,13.27
2023-02-02T21:41:44.850Z,13.20
2023-02-02T21:44:16.362Z,13.12
2023-02-02T21:46:43.390Z,13.08
2023-02-02T21:49:19.662Z,13.01
2023-02-02T21:51:46.545Z,12.93
2023-02-02T21:54:26.228Z,12.95
2023-02-02T21:56:53.429Z,12.96
2023-02-02T21:59:21.913Z,12.94
2023-02-02T22:01:49.822Z,12.92
2023-02-02T22:04:23.434Z,12.89
2023-02-02T22:07:00.947Z,12.88
2023-02-02T22:09:46.097Z,12.64
2023-02-02T22:12:15.970Z,12.72
2023-02-02T22:14:44.031Z,12.69
2023-02-02T22:17:29.243Z,12.70
2023-02-02T22:19:58.666Z,12.63
2023-02-02T22:22:33.218Z,12.56
2023-02-02T22:25:10.706Z,12.57
2023-02-02T22:27:42.358Z,12.50
2023-02-02T22:30:29.809Z,12.49
2023-02-02T22:32:56.976Z,12.44
2023-02-02T22:35:23.848Z,12.42
2023-02-02T22:37:51.560Z,12.40
2023-02-02T22:40:22.689Z,12.37
2023-02-02T22:42:50.567Z,12.34
2023-02-02T22:45:17.458Z,12.33
2023-02-02T22:47:47.499Z,12.34
2023-02-02T22:50:17.890Z,12.13
2023-02-02T22:52:44.779Z,12.07
2023-02-02T22:55:11.979Z,12.26
2023-02-02T22:57:38.959Z,12.10
2023-02-02T23:00:13.928Z,12.04
2023-02-02T23:02:41.105Z,12.07
2023-02-02T23:05:09.455Z,12.15
2023-02-02T23:07:36.355Z,12.11
2023-02-02T23:10:03.711Z,11.93
2023-02-02T23:12:30.607Z,11.92
2023-02-02T23:14:57.483Z,12.04
2023-02-02T23:17:24.319Z,12.03
2023-02-02T23:19:51.163Z,12.01
2023-02-02T23:22:18.020Z,11.98
2023-02-02T23:24:44.871Z,11.96
2023-02-02T23:27:13.054Z,11.95
2023-02-02T23:29:40.050Z,11.79
2023-02-02T23:32:07.179Z,11.88
2023-02-02T23:34:34.169Z,11.83
2023-02-02T23:37:01.016Z,11.73
2023-02-02T23:39:27.843Z,11.78
2023-02-02T23:41:54.724Z,11.74
2023-02-02T23:44:21.824Z,11.71
2023-02-02T23:46:48.900Z,11.67
2023-02-02T23:49:15.750Z,11.50
2023-02-02T23:51:42.633Z,11.61
2023-02-02T23:54:10.601Z,11.60
2023-02-02T23:56:37.558Z,11.55
2023-02-02T23:59:04.428Z,11.50
